Grisdale, Washington
Current Conditions -  °F | °C
As of 6:22 PM on Saturday 25 Oct 2014 (Local Time) from KSHN Reporting Station
Light Rain Light Rain  
Wind Chill: 56°   Ceiling: 1400
Heat Index: 56°   Visibility: 10mi
Dew Point: 53°   Wind: 24mph
Humidity: 90%   Direction: 210°SSW
Pressure: 29.29"   Gusts: 33mph
Location:  47.555°N, 123.746°W
Report Text: KSHN 260122Z AUTO 21021G29KT 10SM -RA BKN014 OVC021 13/12 A2929 RMK AO2 PK WND 21029/0122 P0002 T01330117 TSNO
Loading
Personal Weather Stations






























Interactive Weather Map
Tropical Storm Tracking
New forecast layout! Learn more

10-Day Weather Forecast

Advertisements
Track Severe Weather on mobile